sensor_id;sensor_type;location;lat;lon;timestamp;P1;durP1;ratioP1;P2;durP2;ratioP2
56319;SDS011;42226;42.382;23.748;2024-01-30T00:01:23;9.13;;;8.32;;
56319;SDS011;42226;42.382;23.748;2024-01-30T00:03:50;9.00;;;8.20;;
56319;SDS011;42226;42.382;23.748;2024-01-30T00:06:20;8.40;;;7.70;;
56319;SDS011;42226;42.382;23.748;2024-01-30T00:08:47;8.10;;;7.40;;
56319;SDS011;42226;42.382;23.748;2024-01-30T00:11:14;8.50;;;7.75;;
56319;SDS011;42226;42.382;23.748;2024-01-30T00:13:41;8.48;;;7.88;;
56319;SDS011;42226;42.382;23.748;2024-01-30T00:16:08;8.02;;;7.35;;
56319;SDS011;42226;42.382;23.748;2024-01-30T00:18:45;8.43;;;7.72;;
56319;SDS011;42226;42.382;23.748;2024-01-30T00:21:11;8.90;;;8.10;;
56319;SDS011;42226;42.382;23.748;2024-01-30T00:23:38;8.40;;;7.70;;
56319;SDS011;42226;42.382;23.748;2024-01-30T00:26:05;9.02;;;8.23;;
56319;SDS011;42226;42.382;23.748;2024-01-30T00:28:31;8.25;;;7.55;;
56319;SDS011;42226;42.382;23.748;2024-01-30T00:30:58;8.50;;;7.85;;
56319;SDS011;42226;42.382;23.748;2024-01-30T00:33:24;8.40;;;7.70;;
56319;SDS011;42226;42.382;23.748;2024-01-30T00:35:51;8.35;;;7.75;;
56319;SDS011;42226;42.382;23.748;2024-01-30T00:38:19;8.80;;;8.10;;
56319;SDS011;42226;42.382;23.748;2024-01-30T00:40:46;8.10;;;7.40;;
56319;SDS011;42226;42.382;23.748;2024-01-30T00:43:13;7.82;;;7.25;;
56319;SDS011;42226;42.382;23.748;2024-01-30T00:45:41;8.90;;;8.07;;
56319;SDS011;42226;42.382;23.748;2024-01-30T00:48:10;8.73;;;8.00;;
56319;SDS011;42226;42.382;23.748;2024-01-30T00:50:37;8.07;;;7.47;;
56319;SDS011;42226;42.382;23.748;2024-01-30T00:53:04;9.10;;;8.30;;
56319;SDS011;42226;42.382;23.748;2024-01-30T00:55:31;9.80;;;8.80;;
56319;SDS011;42226;42.382;23.748;2024-01-30T00:57:58;8.90;;;8.20;;
56319;SDS011;42226;42.382;23.748;2024-01-30T01:00:25;10.10;;;9.20;;
56319;SDS011;42226;42.382;23.748;2024-01-30T01:02:55;9.20;;;8.43;;
56319;SDS011;42226;42.382;23.748;2024-01-30T01:05:22;9.85;;;8.98;;
56319;SDS011;42226;42.382;23.748;2024-01-30T01:07:48;8.45;;;7.85;;
56319;SDS011;42226;42.382;23.748;2024-01-30T01:10:16;9.48;;;8.68;;
56319;SDS011;42226;42.382;23.748;2024-01-30T01:12:43;8.27;;;7.68;;
56319;SDS011;42226;42.382;23.748;2024-01-30T01:15:11;9.07;;;8.27;;
56319;SDS011;42226;42.382;23.748;2024-01-30T01:17:38;8.95;;;8.05;;
56319;SDS011;42226;42.382;23.748;2024-01-30T01:20:05;8.82;;;8.13;;
56319;SDS011;42226;42.382;23.748;2024-01-30T01:22:33;8.80;;;8.00;;
56319;SDS011;42226;42.382;23.748;2024-01-30T01:25:00;8.32;;;7.68;;
56319;SDS011;42226;42.382;23.748;2024-01-30T01:27:27;8.43;;;7.72;;
56319;SDS011;42226;42.382;23.748;2024-01-30T01:29:55;8.80;;;8.10;;
56319;SDS011;42226;42.382;23.748;2024-01-30T01:32:21;9.40;;;8.60;;
56319;SDS011;42226;42.382;23.748;2024-01-30T01:34:48;8.15;;;7.53;;
56319;SDS011;42226;42.382;23.748;2024-01-30T01:37:15;9.20;;;8.40;;
56319;SDS011;42226;42.382;23.748;2024-01-30T01:39:41;9.13;;;8.38;;
56319;SDS011;42226;42.382;23.748;2024-01-30T01:42:08;9.00;;;8.20;;
56319;SDS011;42226;42.382;23.748;2024-01-30T01:44:34;9.77;;;8.90;;
56319;SDS011;42226;42.382;23.748;2024-01-30T01:47:01;8.77;;;7.97;;
56319;SDS011;42226;42.382;23.748;2024-01-30T01:49:28;9.18;;;8.38;;
56319;SDS011;42226;42.382;23.748;2024-01-30T01:51:55;9.25;;;8.45;;
56319;SDS011;42226;42.382;23.748;2024-01-30T01:54:23;8.77;;;7.97;;
56319;SDS011;42226;42.382;23.748;2024-01-30T01:56:51;8.93;;;8.23;;
56319;SDS011;42226;42.382;23.748;2024-01-30T01:59:18;7.72;;;7.13;;
56319;SDS011;42226;42.382;23.748;2024-01-30T02:01:47;8.90;;;8.20;;
56319;SDS011;42226;42.382;23.748;2024-01-30T02:04:14;10.55;;;9.55;;
56319;SDS011;42226;42.382;23.748;2024-01-30T02:06:42;8.63;;;8.02;;
56319;SDS011;42226;42.382;23.748;2024-01-30T02:09:10;8.40;;;7.68;;
56319;SDS011;42226;42.382;23.748;2024-01-30T02:11:36;8.13;;;7.43;;
56319;SDS011;42226;42.382;23.748;2024-01-30T02:14:03;8.65;;;7.95;;
56319;SDS011;42226;42.382;23.748;2024-01-30T02:16:30;9.45;;;8.65;;
56319;SDS011;42226;42.382;23.748;2024-01-30T02:18:57;9.00;;;8.30;;
56319;SDS011;42226;42.382;23.748;2024-01-30T02:21:24;9.07;;;8.38;;
56319;SDS011;42226;42.382;23.748;2024-01-30T02:23:51;9.00;;;8.30;;
56319;SDS011;42226;42.382;23.748;2024-01-30T02:26:20;8.93;;;8.13;;
56319;SDS011;42226;42.382;23.748;2024-01-30T02:28:46;9.13;;;8.32;;
56319;SDS011;42226;42.382;23.748;2024-01-30T02:31:13;8.85;;;8.18;;
56319;SDS011;42226;42.382;23.748;2024-01-30T02:33:40;8.73;;;8.02;;
56319;SDS011;42226;42.382;23.748;2024-01-30T02:36:06;8.38;;;7.68;;
56319;SDS011;42226;42.382;23.748;2024-01-30T02:38:33;8.85;;;8.15;;
56319;SDS011;42226;42.382;23.748;2024-01-30T02:41:00;8.65;;;8.00;;
56319;SDS011;42226;42.382;23.748;2024-01-30T02:43:26;8.75;;;8.10;;
56319;SDS011;42226;42.382;23.748;2024-01-30T02:45:53;8.77;;;8.00;;
56319;SDS011;42226;42.382;23.748;2024-01-30T02:48:19;9.13;;;8.35;;
56319;SDS011;42226;42.382;23.748;2024-01-30T02:50:46;9.57;;;8.80;;
56319;SDS011;42226;42.382;23.748;2024-01-30T02:53:13;8.32;;;7.72;;
56319;SDS011;42226;42.382;23.748;2024-01-30T02:55:39;8.50;;;7.80;;
56319;SDS011;42226;42.382;23.748;2024-01-30T02:58:06;8.70;;;7.90;;
56319;SDS011;42226;42.382;23.748;2024-01-30T03:00:33;8.10;;;7.50;;
56319;SDS011;42226;42.382;23.748;2024-01-30T03:03:00;8.73;;;8.02;;
56319;SDS011;42226;42.382;23.748;2024-01-30T03:05:27;8.20;;;7.60;;
56319;SDS011;42226;42.382;23.748;2024-01-30T03:07:54;8.27;;;7.57;;
56319;SDS011;42226;42.382;23.748;2024-01-30T03:10:21;8.77;;;8.05;;
56319;SDS011;42226;42.382;23.748;2024-01-30T03:12:48;8.30;;;7.68;;
56319;SDS011;42226;42.382;23.748;2024-01-30T03:15:14;8.20;;;7.50;;
56319;SDS011;42226;42.382;23.748;2024-01-30T03:17:41;8.43;;;7.72;;
56319;SDS011;42226;42.382;23.748;2024-01-30T03:20:08;8.68;;;7.97;;
56319;SDS011;42226;42.382;23.748;2024-01-30T03:22:35;8.73;;;7.97;;
56319;SDS011;42226;42.382;23.748;2024-01-30T03:25:02;8.45;;;7.75;;
56319;SDS011;42226;42.382;23.748;2024-01-30T03:27:29;8.25;;;7.50;;
56319;SDS011;42226;42.382;23.748;2024-01-30T03:29:56;7.88;;;7.22;;
56319;SDS011;42226;42.382;23.748;2024-01-30T03:32:23;8.40;;;7.78;;
56319;SDS011;42226;42.382;23.748;2024-01-30T03:34:50;8.30;;;7.60;;
56319;SDS011;42226;42.382;23.748;2024-01-30T03:37:17;8.40;;;7.80;;
56319;SDS011;42226;42.382;23.748;2024-01-30T03:39:43;8.70;;;8.00;;
56319;SDS011;42226;42.382;23.748;2024-01-30T03:42:10;8.88;;;7.97;;
56319;SDS011;42226;42.382;23.748;2024-01-30T03:44:36;8.50;;;7.80;;
56319;SDS011;42226;42.382;23.748;2024-01-30T03:47:04;9.32;;;8.45;;
56319;SDS011;42226;42.382;23.748;2024-01-30T03:49:30;8.27;;;7.68;;
56319;SDS011;42226;42.382;23.748;2024-01-30T03:51:57;8.75;;;8.05;;
56319;SDS011;42226;42.382;23.748;2024-01-30T03:54:23;9.07;;;8.27;;
56319;SDS011;42226;42.382;23.748;2024-01-30T03:56:50;8.43;;;7.82;;
56319;SDS011;42226;42.382;23.748;2024-01-30T03:59:16;9.13;;;8.32;;
56319;SDS011;42226;42.382;23.748;2024-01-30T04:01:48;8.60;;;8.00;;
56319;SDS011;42226;42.382;23.748;2024-01-30T04:04:16;8.45;;;7.78;;
56319;SDS011;42226;42.382;23.748;2024-01-30T04:06:43;7.90;;;7.22;;
56319;SDS011;42226;42.382;23.748;2024-01-30T04:09:11;8.63;;;7.80;;
56319;SDS011;42226;42.382;23.748;2024-01-30T04:11:39;8.55;;;7.85;;
56319;SDS011;42226;42.382;23.748;2024-01-30T04:14:06;8.45;;;7.75;;
56319;SDS011;42226;42.382;23.748;2024-01-30T04:16:34;8.20;;;7.60;;
56319;SDS011;42226;42.382;23.748;2024-01-30T04:19:01;9.10;;;8.30;;
56319;SDS011;42226;42.382;23.748;2024-01-30T04:21:28;8.70;;;8.00;;
56319;SDS011;42226;42.382;23.748;2024-01-30T04:23:54;8.68;;;7.97;;
56319;SDS011;42226;42.382;23.748;2024-01-30T04:26:21;8.38;;;7.63;;
56319;SDS011;42226;42.382;23.748;2024-01-30T04:28:47;7.75;;;7.18;;
56319;SDS011;42226;42.382;23.748;2024-01-30T04:31:14;8.02;;;7.43;;
56319;SDS011;42226;42.382;23.748;2024-01-30T04:33:40;8.05;;;7.35;;
56319;SDS011;42226;42.382;23.748;2024-01-30T04:36:10;8.40;;;7.80;;
56319;SDS011;42226;42.382;23.748;2024-01-30T04:38:37;8.35;;;7.75;;
56319;SDS011;42226;42.382;23.748;2024-01-30T04:41:04;8.30;;;7.70;;
56319;SDS011;42226;42.382;23.748;2024-01-30T04:43:32;8.20;;;7.50;;
56319;SDS011;42226;42.382;23.748;2024-01-30T04:46:00;8.18;;;7.50;;
56319;SDS011;42226;42.382;23.748;2024-01-30T04:48:27;8.65;;;7.95;;
56319;SDS011;42226;42.382;23.748;2024-01-30T04:50:54;8.75;;;8.07;;
56319;SDS011;42226;42.382;23.748;2024-01-30T04:53:21;8.18;;;7.57;;
56319;SDS011;42226;42.382;23.748;2024-01-30T04:55:48;8.25;;;7.63;;
56319;SDS011;42226;42.382;23.748;2024-01-30T04:58:14;7.72;;;7.15;;
56319;SDS011;42226;42.382;23.748;2024-01-30T05:00:41;7.97;;;7.47;;
56319;SDS011;42226;42.382;23.748;2024-01-30T05:03:07;7.80;;;7.25;;
56319;SDS011;42226;42.382;23.748;2024-01-30T05:05:34;7.68;;;7.18;;
56319;SDS011;42226;42.382;23.748;2024-01-30T05:08:01;7.88;;;7.28;;
56319;SDS011;42226;42.382;23.748;2024-01-30T05:10:27;7.93;;;7.32;;
56319;SDS011;42226;42.382;23.748;2024-01-30T05:12:54;7.90;;;7.30;;
56319;SDS011;42226;42.382;23.748;2024-01-30T05:15:21;7.57;;;7.07;;
56319;SDS011;42226;42.382;23.748;2024-01-30T05:17:48;7.65;;;7.00;;
56319;SDS011;42226;42.382;23.748;2024-01-30T05:20:14;7.43;;;6.93;;
56319;SDS011;42226;42.382;23.748;2024-01-30T05:22:42;6.88;;;6.47;;
56319;SDS011;42226;42.382;23.748;2024-01-30T05:25:10;7.25;;;6.75;;
56319;SDS011;42226;42.382;23.748;2024-01-30T05:27:39;7.97;;;7.28;;
56319;SDS011;42226;42.382;23.748;2024-01-30T05:30:06;6.97;;;6.47;;
56319;SDS011;42226;42.382;23.748;2024-01-30T05:32:34;7.50;;;7.00;;
56319;SDS011;42226;42.382;23.748;2024-01-30T05:35:02;7.93;;;7.43;;
56319;SDS011;42226;42.382;23.748;2024-01-30T05:37:30;7.38;;;6.88;;
56319;SDS011;42226;42.382;23.748;2024-01-30T05:39:58;7.25;;;6.70;;
56319;SDS011;42226;42.382;23.748;2024-01-30T05:42:26;7.75;;;7.15;;
56319;SDS011;42226;42.382;23.748;2024-01-30T05:44:54;7.90;;;7.40;;
56319;SDS011;42226;42.382;23.748;2024-01-30T05:47:22;7.13;;;6.60;;
56319;SDS011;42226;42.382;23.748;2024-01-30T05:49:48;6.78;;;6.38;;
56319;SDS011;42226;42.382;23.748;2024-01-30T05:52:16;7.50;;;6.97;;
56319;SDS011;42226;42.382;23.748;2024-01-30T05:54:44;7.10;;;6.70;;
56319;SDS011;42226;42.382;23.748;2024-01-30T05:57:10;7.50;;;7.05;;
56319;SDS011;42226;42.382;23.748;2024-01-30T05:59:37;6.97;;;6.43;;
56319;SDS011;42226;42.382;23.748;2024-01-30T06:02:04;7.50;;;7.00;;
56319;SDS011;42226;42.382;23.748;2024-01-30T06:04:32;7.40;;;6.90;;
56319;SDS011;42226;42.382;23.748;2024-01-30T06:06:59;7.10;;;6.70;;
56319;SDS011;42226;42.382;23.748;2024-01-30T06:09:28;7.68;;;7.18;;
56319;SDS011;42226;42.382;23.748;2024-01-30T06:11:56;7.88;;;7.38;;
56319;SDS011;42226;42.382;23.748;2024-01-30T06:14:23;6.95;;;6.45;;
56319;SDS011;42226;42.382;23.748;2024-01-30T06:16:50;7.22;;;6.72;;
56319;SDS011;42226;42.382;23.748;2024-01-30T06:19:18;7.47;;;6.97;;
56319;SDS011;42226;42.382;23.748;2024-01-30T06:21:44;7.53;;;7.05;;
56319;SDS011;42226;42.382;23.748;2024-01-30T06:24:12;6.93;;;6.43;;
56319;SDS011;42226;42.382;23.748;2024-01-30T06:26:40;6.95;;;6.45;;
56319;SDS011;42226;42.382;23.748;2024-01-30T06:29:07;7.00;;;6.53;;
56319;SDS011;42226;42.382;23.748;2024-01-30T06:31:39;7.25;;;6.78;;
56319;SDS011;42226;42.382;23.748;2024-01-30T06:34:10;7.65;;;7.20;;
56319;SDS011;42226;42.382;23.748;2024-01-30T06:36:38;7.30;;;6.80;;
56319;SDS011;42226;42.382;23.748;2024-01-30T06:39:06;7.60;;;7.10;;
56319;SDS011;42226;42.382;23.748;2024-01-30T06:41:36;7.47;;;6.88;;
56319;SDS011;42226;42.382;23.748;2024-01-30T06:44:03;6.65;;;6.22;;
56319;SDS011;42226;42.382;23.748;2024-01-30T06:46:32;7.30;;;6.90;;
56319;SDS011;42226;42.382;23.748;2024-01-30T06:49:00;6.95;;;6.55;;
56319;SDS011;42226;42.382;23.748;2024-01-30T06:51:28;7.28;;;6.78;;
56319;SDS011;42226;42.382;23.748;2024-01-30T06:53:55;6.88;;;6.38;;
56319;SDS011;42226;42.382;23.748;2024-01-30T06:56:23;7.20;;;6.75;;
56319;SDS011;42226;42.382;23.748;2024-01-30T06:58:50;7.30;;;6.70;;
56319;SDS011;42226;42.382;23.748;2024-01-30T07:01:18;6.95;;;6.45;;
56319;SDS011;42226;42.382;23.748;2024-01-30T07:03:45;6.90;;;6.50;;
56319;SDS011;42226;42.382;23.748;2024-01-30T07:06:13;7.15;;;6.65;;
56319;SDS011;42226;42.382;23.748;2024-01-30T07:08:41;7.35;;;6.85;;
56319;SDS011;42226;42.382;23.748;2024-01-30T07:11:09;6.85;;;6.35;;
56319;SDS011;42226;42.382;23.748;2024-01-30T07:13:37;7.35;;;6.85;;
56319;SDS011;42226;42.382;23.748;2024-01-30T07:16:04;6.97;;;6.47;;
56319;SDS011;42226;42.382;23.748;2024-01-30T07:18:32;7.60;;;7.10;;
56319;SDS011;42226;42.382;23.748;2024-01-30T07:20:59;7.35;;;6.85;;
56319;SDS011;42226;42.382;23.748;2024-01-30T07:23:27;7.30;;;6.80;;
56319;SDS011;42226;42.382;23.748;2024-01-30T07:25:54;6.68;;;6.28;;
56319;SDS011;42226;42.382;23.748;2024-01-30T07:28:22;6.65;;;6.25;;
56319;SDS011;42226;42.382;23.748;2024-01-30T07:30:49;7.07;;;6.47;;
56319;SDS011;42226;42.382;23.748;2024-01-30T07:33:16;7.20;;;6.70;;
56319;SDS011;42226;42.382;23.748;2024-01-30T07:35:45;6.35;;;5.95;;
56319;SDS011;42226;42.382;23.748;2024-01-30T07:38:13;6.78;;;6.38;;
56319;SDS011;42226;42.382;23.748;2024-01-30T07:40:41;7.03;;;6.53;;
56319;SDS011;42226;42.382;23.748;2024-01-30T07:43:08;6.40;;;6.00;;
56319;SDS011;42226;42.382;23.748;2024-01-30T07:45:36;6.82;;;6.43;;
56319;SDS011;42226;42.382;23.748;2024-01-30T07:48:04;6.68;;;6.28;;
56319;SDS011;42226;42.382;23.748;2024-01-30T07:50:33;6.85;;;6.45;;
56319;SDS011;42226;42.382;23.748;2024-01-30T07:53:00;6.30;;;5.90;;
56319;SDS011;42226;42.382;23.748;2024-01-30T07:55:28;6.95;;;6.45;;
56319;SDS011;42226;42.382;23.748;2024-01-30T07:57:56;6.90;;;6.50;;
56319;SDS011;42226;42.382;23.748;2024-01-30T08:00:27;7.00;;;6.50;;
56319;SDS011;42226;42.382;23.748;2024-01-30T08:02:56;7.07;;;6.57;;
56319;SDS011;42226;42.382;23.748;2024-01-30T08:05:25;7.30;;;6.80;;
56319;SDS011;42226;42.382;23.748;2024-01-30T08:07:52;7.35;;;6.88;;
56319;SDS011;42226;42.382;23.748;2024-01-30T08:10:21;7.07;;;6.57;;
56319;SDS011;42226;42.382;23.748;2024-01-30T08:12:48;7.13;;;6.72;;
56319;SDS011;42226;42.382;23.748;2024-01-30T08:15:16;6.40;;;6.00;;
56319;SDS011;42226;42.382;23.748;2024-01-30T08:17:44;6.90;;;6.50;;
56319;SDS011;42226;42.382;23.748;2024-01-30T08:20:10;7.00;;;6.60;;
56319;SDS011;42226;42.382;23.748;2024-01-30T08:22:40;6.68;;;6.28;;
56319;SDS011;42226;42.382;23.748;2024-01-30T08:25:07;7.55;;;7.05;;
56319;SDS011;42226;42.382;23.748;2024-01-30T08:27:35;6.45;;;6.03;;
56319;SDS011;42226;42.382;23.748;2024-01-30T08:30:04;6.82;;;6.43;;
56319;SDS011;42226;42.382;23.748;2024-01-30T08:32:35;6.80;;;6.40;;
56319;SDS011;42226;42.382;23.748;2024-01-30T08:35:02;6.82;;;6.43;;
56319;SDS011;42226;42.382;23.748;2024-01-30T08:37:30;6.50;;;6.10;;
56319;SDS011;42226;42.382;23.748;2024-01-30T08:39:57;6.25;;;5.90;;
56319;SDS011;42226;42.382;23.748;2024-01-30T08:42:25;6.25;;;5.85;;
56319;SDS011;42226;42.382;23.748;2024-01-30T08:44:53;6.55;;;6.15;;
56319;SDS011;42226;42.382;23.748;2024-01-30T08:47:21;6.53;;;6.13;;
56319;SDS011;42226;42.382;23.748;2024-01-30T08:49:48;5.88;;;5.32;;
56319;SDS011;42226;42.382;23.748;2024-01-30T08:52:15;6.30;;;5.90;;
56319;SDS011;42226;42.382;23.748;2024-01-30T08:54:43;6.30;;;5.93;;
56319;SDS011;42226;42.382;23.748;2024-01-30T09:00:52;5.60;;;5.30;;
56319;SDS011;42226;42.382;23.748;2024-01-30T09:03:20;6.30;;;5.95;;
56319;SDS011;42226;42.382;23.748;2024-01-30T09:05:47;6.50;;;6.10;;
56319;SDS011;42226;42.382;23.748;2024-01-30T09:08:14;6.30;;;5.90;;
56319;SDS011;42226;42.382;23.748;2024-01-30T09:10:42;6.13;;;5.75;;
56319;SDS011;42226;42.382;23.748;2024-01-30T09:13:09;6.82;;;6.43;;
56319;SDS011;42226;42.382;23.748;2024-01-30T09:15:37;6.28;;;5.88;;
56319;SDS011;42226;42.382;23.748;2024-01-30T09:18:04;6.03;;;5.63;;
56319;SDS011;42226;42.382;23.748;2024-01-30T09:20:33;6.70;;;6.20;;
56319;SDS011;42226;42.382;23.748;2024-01-30T09:23:00;6.38;;;5.97;;
56319;SDS011;42226;42.382;23.748;2024-01-30T09:25:27;6.05;;;5.70;;
56319;SDS011;42226;42.382;23.748;2024-01-30T09:27:55;5.88;;;5.47;;
56319;SDS011;42226;42.382;23.748;2024-01-30T09:30:22;6.20;;;5.80;;
56319;SDS011;42226;42.382;23.748;2024-01-30T09:32:50;5.78;;;5.47;;
56319;SDS011;42226;42.382;23.748;2024-01-30T09:35:16;6.20;;;5.80;;
56319;SDS011;42226;42.382;23.748;2024-01-30T09:37:44;5.70;;;5.40;;
56319;SDS011;42226;42.382;23.748;2024-01-30T09:40:10;6.18;;;5.78;;
56319;SDS011;42226;42.382;23.748;2024-01-30T09:42:38;6.18;;;5.78;;
56319;SDS011;42226;42.382;23.748;2024-01-30T09:45:09;6.13;;;5.82;;
56319;SDS011;42226;42.382;23.748;2024-01-30T09:47:41;6.18;;;5.82;;
56319;SDS011;42226;42.382;23.748;2024-01-30T09:50:11;5.80;;;5.47;;
56319;SDS011;42226;42.382;23.748;2024-01-30T09:52:43;5.85;;;5.43;;
56319;SDS011;42226;42.382;23.748;2024-01-30T09:55:11;5.93;;;5.53;;
56319;SDS011;42226;42.382;23.748;2024-01-30T09:57:39;6.15;;;5.75;;
56319;SDS011;42226;42.382;23.748;2024-01-30T10:00:09;6.07;;;5.68;;
56319;SDS011;42226;42.382;23.748;2024-01-30T10:02:38;6.05;;;5.65;;
56319;SDS011;42226;42.382;23.748;2024-01-30T10:05:07;6.35;;;5.95;;
56319;SDS011;42226;42.382;23.748;2024-01-30T10:07:35;5.95;;;5.55;;
56319;SDS011;42226;42.382;23.748;2024-01-30T10:10:04;5.75;;;5.45;;
56319;SDS011;42226;42.382;23.748;2024-01-30T10:12:32;5.68;;;5.35;;
56319;SDS011;42226;42.382;23.748;2024-01-30T10:15:01;6.00;;;5.65;;
56319;SDS011;42226;42.382;23.748;2024-01-30T10:17:34;6.07;;;5.57;;
56319;SDS011;42226;42.382;23.748;2024-01-30T10:20:05;5.97;;;5.68;;
56319;SDS011;42226;42.382;23.748;2024-01-30T10:22:33;6.40;;;6.00;;
56319;SDS011;42226;42.382;23.748;2024-01-30T10:28:02;5.63;;;5.28;;
56319;SDS011;42226;42.382;23.748;2024-01-30T10:30:29;6.00;;;5.60;;
56319;SDS011;42226;42.382;23.748;2024-01-30T10:32:56;6.45;;;6.05;;
56319;SDS011;42226;42.382;23.748;2024-01-30T10:35:23;6.43;;;6.03;;
56319;SDS011;42226;42.382;23.748;2024-01-30T10:37:51;5.82;;;5.43;;
56319;SDS011;42226;42.382;23.748;2024-01-30T10:40:20;6.28;;;5.88;;
56319;SDS011;42226;42.382;23.748;2024-01-30T10:42:51;6.25;;;5.85;;
56319;SDS011;42226;42.382;23.748;2024-01-30T10:45:20;5.68;;;5.38;;
56319;SDS011;42226;42.382;23.748;2024-01-30T10:47:54;6.32;;;5.93;;
56319;SDS011;42226;42.382;23.748;2024-01-30T10:50:24;7.05;;;6.55;;
56319;SDS011;42226;42.382;23.748;2024-01-30T10:52:53;6.00;;;5.55;;
56319;SDS011;42226;42.382;23.748;2024-01-30T10:55:22;5.88;;;5.47;;
56319;SDS011;42226;42.382;23.748;2024-01-30T10:57:49;6.35;;;5.95;;
56319;SDS011;42226;42.382;23.748;2024-01-30T11:00:17;5.75;;;5.35;;
56319;SDS011;42226;42.382;23.748;2024-01-30T11:02:48;7.00;;;6.50;;
56319;SDS011;42226;42.382;23.748;2024-01-30T11:05:23;7.93;;;7.32;;
56319;SDS011;42226;42.382;23.748;2024-01-30T11:10:59;6.90;;;6.40;;
56319;SDS011;42226;42.382;23.748;2024-01-30T11:13:33;5.70;;;5.30;;
56319;SDS011;42226;42.382;23.748;2024-01-30T11:16:05;6.63;;;6.18;;
56319;SDS011;42226;42.382;23.748;2024-01-30T11:18:32;6.60;;;6.10;;
56319;SDS011;42226;42.382;23.748;2024-01-30T11:21:01;7.22;;;6.63;;
56319;SDS011;42226;42.382;23.748;2024-01-30T11:23:30;6.75;;;6.25;;
56319;SDS011;42226;42.382;23.748;2024-01-30T11:26:02;7.30;;;6.80;;
56319;SDS011;42226;42.382;23.748;2024-01-30T11:28:33;7.50;;;7.00;;
56319;SDS011;42226;42.382;23.748;2024-01-30T11:31:04;7.07;;;6.63;;
56319;SDS011;42226;42.382;23.748;2024-01-30T11:33:35;7.80;;;7.20;;
56319;SDS011;42226;42.382;23.748;2024-01-30T11:36:03;7.68;;;7.07;;
56319;SDS011;42226;42.382;23.748;2024-01-30T11:38:32;6.95;;;6.45;;
56319;SDS011;42226;42.382;23.748;2024-01-30T11:40:59;7.70;;;7.10;;
56319;SDS011;42226;42.382;23.748;2024-01-30T11:43:28;7.15;;;6.55;;
56319;SDS011;42226;42.382;23.748;2024-01-30T11:45:55;7.38;;;6.78;;
56319;SDS011;42226;42.382;23.748;2024-01-30T11:48:23;7.10;;;6.50;;
56319;SDS011;42226;42.382;23.748;2024-01-30T11:50:52;7.50;;;7.00;;
56319;SDS011;42226;42.382;23.748;2024-01-30T11:53:20;7.00;;;6.50;;
56319;SDS011;42226;42.382;23.748;2024-01-30T11:55:51;7.70;;;7.15;;
56319;SDS011;42226;42.382;23.748;2024-01-30T11:58:19;7.25;;;6.75;;
56319;SDS011;42226;42.382;23.748;2024-01-30T12:00:54;8.15;;;7.55;;
56319;SDS011;42226;42.382;23.748;2024-01-30T12:03:22;7.45;;;6.85;;
56319;SDS011;42226;42.382;23.748;2024-01-30T12:05:56;6.97;;;6.47;;
56319;SDS011;42226;42.382;23.748;2024-01-30T12:08:24;7.45;;;6.95;;
56319;SDS011;42226;42.382;23.748;2024-01-30T12:10:57;7.32;;;6.82;;
56319;SDS011;42226;42.382;23.748;2024-01-30T12:13:25;7.07;;;6.68;;
56319;SDS011;42226;42.382;23.748;2024-01-30T12:15:54;7.10;;;6.60;;
56319;SDS011;42226;42.382;23.748;2024-01-30T12:18:22;7.30;;;6.80;;
56319;SDS011;42226;42.382;23.748;2024-01-30T12:21:02;6.65;;;6.20;;
56319;SDS011;42226;42.382;23.748;2024-01-30T12:23:29;6.68;;;6.28;;
56319;SDS011;42226;42.382;23.748;2024-01-30T12:25:57;7.45;;;6.95;;
56319;SDS011;42226;42.382;23.748;2024-01-30T12:28:25;7.13;;;6.63;;
56319;SDS011;42226;42.382;23.748;2024-01-30T12:30:56;7.68;;;6.97;;
56319;SDS011;42226;42.382;23.748;2024-01-30T12:33:27;6.90;;;6.32;;
56319;SDS011;42226;42.382;23.748;2024-01-30T12:35:55;6.20;;;5.70;;
56319;SDS011;42226;42.382;23.748;2024-01-30T12:38:24;6.80;;;6.40;;
56319;SDS011;42226;42.382;23.748;2024-01-30T12:40:54;6.38;;;5.88;;
56319;SDS011;42226;42.382;23.748;2024-01-30T12:43:25;7.18;;;6.60;;
56319;SDS011;42226;42.382;23.748;2024-01-30T12:45:52;6.10;;;5.68;;
56319;SDS011;42226;42.382;23.748;2024-01-30T12:48:20;6.38;;;5.97;;
56319;SDS011;42226;42.382;23.748;2024-01-30T12:50:47;7.05;;;6.55;;
56319;SDS011;42226;42.382;23.748;2024-01-30T12:53:16;6.20;;;5.80;;
56319;SDS011;42226;42.382;23.748;2024-01-30T12:55:43;6.97;;;6.47;;
56319;SDS011;42226;42.382;23.748;2024-01-30T12:58:11;6.57;;;6.07;;
56319;SDS011;42226;42.382;23.748;2024-01-30T13:00:39;7.00;;;6.50;;
56319;SDS011;42226;42.382;23.748;2024-01-30T13:03:06;6.97;;;6.28;;
56319;SDS011;42226;42.382;23.748;2024-01-30T13:05:34;7.22;;;6.70;;
56319;SDS011;42226;42.382;23.748;2024-01-30T13:08:02;6.00;;;5.50;;
56319;SDS011;42226;42.382;23.748;2024-01-30T13:10:30;6.50;;;6.10;;
56319;SDS011;42226;42.382;23.748;2024-01-30T13:12:57;7.10;;;6.60;;
56319;SDS011;42226;42.382;23.748;2024-01-30T13:15:24;6.82;;;6.38;;
56319;SDS011;42226;42.382;23.748;2024-01-30T13:17:51;6.20;;;5.80;;
56319;SDS011;42226;42.382;23.748;2024-01-30T13:20:20;6.30;;;5.90;;
56319;SDS011;42226;42.382;23.748;2024-01-30T13:22:47;6.70;;;6.28;;
56319;SDS011;42226;42.382;23.748;2024-01-30T13:25:16;6.85;;;6.30;;
56319;SDS011;42226;42.382;23.748;2024-01-30T13:27:43;6.55;;;6.15;;
56319;SDS011;42226;42.382;23.748;2024-01-30T13:30:11;6.70;;;6.20;;
56319;SDS011;42226;42.382;23.748;2024-01-30T13:32:39;6.82;;;6.22;;
56319;SDS011;42226;42.382;23.748;2024-01-30T13:35:10;6.75;;;6.25;;
56319;SDS011;42226;42.382;23.748;2024-01-30T13:37:37;7.20;;;6.70;;
56319;SDS011;42226;42.382;23.748;2024-01-30T13:40:05;7.63;;;7.00;;
56319;SDS011;42226;42.382;23.748;2024-01-30T13:42:33;7.10;;;6.60;;
56319;SDS011;42226;42.382;23.748;2024-01-30T13:45:00;7.60;;;7.07;;
56319;SDS011;42226;42.382;23.748;2024-01-30T13:47:28;7.40;;;6.90;;
56319;SDS011;42226;42.382;23.748;2024-01-30T13:49:54;6.78;;;6.35;;
56319;SDS011;42226;42.382;23.748;2024-01-30T13:52:23;7.70;;;7.20;;
56319;SDS011;42226;42.382;23.748;2024-01-30T13:54:52;7.50;;;7.00;;
56319;SDS011;42226;42.382;23.748;2024-01-30T13:57:18;7.13;;;6.63;;
56319;SDS011;42226;42.382;23.748;2024-01-30T13:59:55;7.45;;;6.95;;
56319;SDS011;42226;42.382;23.748;2024-01-30T14:06:03;7.18;;;6.68;;
56319;SDS011;42226;42.382;23.748;2024-01-30T14:08:47;6.88;;;6.28;;
56319;SDS011;42226;42.382;23.748;2024-01-30T14:11:14;7.53;;;7.03;;
56319;SDS011;42226;42.382;23.748;2024-01-30T14:13:42;7.22;;;6.55;;
56319;SDS011;42226;42.382;23.748;2024-01-30T14:16:09;6.93;;;6.40;;
56319;SDS011;42226;42.382;23.748;2024-01-30T14:18:36;6.22;;;5.78;;
56319;SDS011;42226;42.382;23.748;2024-01-30T14:21:03;8.30;;;7.70;;
56319;SDS011;42226;42.382;23.748;2024-01-30T14:23:29;8.20;;;7.60;;
56319;SDS011;42226;42.382;23.748;2024-01-30T14:25:56;8.18;;;7.57;;
56319;SDS011;42226;42.382;23.748;2024-01-30T14:28:22;8.90;;;8.20;;
56319;SDS011;42226;42.382;23.748;2024-01-30T14:30:50;8.30;;;7.70;;
56319;SDS011;42226;42.382;23.748;2024-01-30T14:33:17;7.40;;;6.78;;
56319;SDS011;42226;42.382;23.748;2024-01-30T14:35:44;8.02;;;7.43;;
56319;SDS011;42226;42.382;23.748;2024-01-30T14:41:09;8.07;;;7.38;;
56319;SDS011;42226;42.382;23.748;2024-01-30T14:43:37;8.82;;;8.13;;
56319;SDS011;42226;42.382;23.748;2024-01-30T14:46:03;8.30;;;7.60;;
56319;SDS011;42226;42.382;23.748;2024-01-30T14:48:33;7.97;;;7.28;;
56319;SDS011;42226;42.382;23.748;2024-01-30T14:50:59;8.55;;;7.85;;
56319;SDS011;42226;42.382;23.748;2024-01-30T14:53:27;9.30;;;8.50;;